Main page
METAR-TAF:

METAR-TAF

Airports :

Cap. FAP Pedro Canga Rodríguez Airport

Tumbes, Peru

latitude: 03-33S, longitude: 080-24W, elevation: 25 m

Current weather observation

The report was made 11 hours and 18 minutes ago, at 03:00 UTC
Wind 3 kt from the West/Northwest
Temperature 22°C
Humidity 88%
Pressure 1013 hPa
Visibility 10 km or more
Broken clouds at a height of 1500 ft

METAR: SPME 170300Z 30003KT 9999 BKN015 22/20 Q1013 RMK BIRD HAZARD RWY 32/14 PP000

Time: 09:18 (14:18 UTC)

Forecast

The report was made 3 hours and 18 minutes ago, at 11:00 UTC
Forecast valid from 17 at 12 UTC to 18 at 12 UTC
Wind 5 kt from the West/Northwest
Visibility 10 km or more
Broken clouds at a height of 1200 ft
Becoming
from 17 at 14 UTC to 17 at 16 UTC
Few clouds at a height of 3000 ft
Becoming
from 17 at 22 UTC to 17 at 23 UTC
Broken clouds at a height of 1500 ft

TAF: SPME 171100Z 1712/1812 30005KT 9999 BKN012 TX28/1719Z TN20/1811Z BECMG 1714/1716 FEW030 BECMG 1722/1723 BKN015

Weather observations and forecasts of more than 4000 airports (METAR and TAF reports).

The available stations are represented by yellow and red dots on the map.

Hover mouse over dot to see the name of the station.

Then click to see weather observations and forecasts.

To change the map : click on the green buttons with a black cross to zoom in, on the green button with a dash to zoom out, or on the green arrows for adjacent maps.


METAR-TAF: